createdAt,value
2024-01-15T00:02:24.267Z,32.40
2024-01-15T00:04:52.485Z,33.02
2024-01-15T00:07:20.596Z,33.36
2024-01-15T00:09:48.706Z,33.53
2024-01-15T00:12:16.643Z,33.56
2024-01-15T00:14:44.594Z,33.74
2024-01-15T00:17:12.504Z,35.29
2024-01-15T00:19:41.430Z,34.80
2024-01-15T00:22:09.512Z,34.78
2024-01-15T00:24:37.310Z,33.34
2024-01-15T00:27:05.394Z,33.65
2024-01-15T00:29:33.183Z,34.75
2024-01-15T00:32:01.024Z,33.09
2024-01-15T00:34:29.080Z,33.12
2024-01-15T00:36:56.982Z,32.31
2024-01-15T00:39:24.944Z,33.28
2024-01-15T00:41:52.889Z,32.87
2024-01-15T00:44:20.870Z,32.81
2024-01-15T00:46:48.801Z,32.02
2024-01-15T00:49:17.488Z,31.59
2024-01-15T00:51:45.348Z,31.91
2024-01-15T00:54:13.300Z,32.69
2024-01-15T00:56:41.117Z,32.10
2024-01-15T00:59:11.684Z,31.62
2024-01-15T01:01:39.709Z,31.42
2024-01-15T01:04:07.698Z,31.77
2024-01-15T01:06:35.646Z,32.06
2024-01-15T01:09:03.572Z,32.23
2024-01-15T01:11:31.647Z,32.85
2024-01-15T01:13:59.707Z,32.61
2024-01-15T01:16:27.476Z,31.61
2024-01-15T01:18:55.657Z,32.01
2024-01-15T01:21:23.927Z,31.99
2024-01-15T01:23:51.910Z,31.73
2024-01-15T01:26:20.146Z,32.79
2024-01-15T01:28:47.952Z,32.44
2024-01-15T01:31:17.878Z,32.96
2024-01-15T01:33:45.953Z,32.39
2024-01-15T01:36:13.842Z,33.29
2024-01-15T01:38:42.632Z,33.58
2024-01-15T01:41:10.786Z,33.71
2024-01-15T01:43:38.636Z,33.92
2024-01-15T01:46:08.703Z,34.75
2024-01-15T01:48:38.273Z,33.91
2024-01-15T01:51:06.570Z,34.48
2024-01-15T01:53:38.114Z,35.34
2024-01-15T01:56:06.988Z,35.20
2024-01-15T01:58:35.744Z,34.90
2024-01-15T02:01:03.979Z,35.45
2024-01-15T02:03:33.093Z,36.51
2024-01-15T02:06:02.599Z,35.56
2024-01-15T02:08:31.567Z,35.68
2024-01-15T02:10:59.389Z,35.56
2024-01-15T02:13:27.257Z,36.11
2024-01-15T02:15:58.077Z,36.20
2024-01-15T02:18:26.187Z,37.15
2024-01-15T02:20:54.257Z,37.49
2024-01-15T02:23:22.087Z,35.69
2024-01-15T02:25:50.447Z,35.51
2024-01-15T02:28:19.467Z,35.86
2024-01-15T02:30:47.556Z,36.31
2024-01-15T02:33:15.651Z,35.50
2024-01-15T02:35:43.645Z,35.83
2024-01-15T02:38:11.434Z,36.00
2024-01-15T02:40:40.974Z,35.10
2024-01-15T02:43:09.320Z,33.41
2024-01-15T02:45:37.271Z,32.31
2024-01-15T02:48:05.699Z,33.22
2024-01-15T02:50:33.547Z,30.86
2024-01-15T02:53:01.471Z,31.12
2024-01-15T02:55:30.846Z,30.96
2024-01-15T02:57:58.729Z,29.57
2024-01-15T03:00:26.782Z,27.34
2024-01-15T03:02:55.174Z,24.57
2024-01-15T03:05:23.006Z,24.07
2024-01-15T03:07:50.881Z,25.17
2024-01-15T03:10:18.832Z,26.56
2024-01-15T03:12:46.826Z,27.37
2024-01-15T03:15:14.832Z,28.10
2024-01-15T03:17:44.416Z,28.56
2024-01-15T03:20:12.980Z,28.08
2024-01-15T03:22:40.810Z,28.63
2024-01-15T03:25:09.390Z,29.42
2024-01-15T03:27:37.553Z,29.07
2024-01-15T03:30:05.860Z,29.70
2024-01-15T03:32:35.238Z,30.06
2024-01-15T03:35:03.197Z,29.02
2024-01-15T03:37:30.997Z,29.03
2024-01-15T03:39:58.896Z,28.46
2024-01-15T03:42:27.634Z,28.67
2024-01-15T03:44:55.549Z,27.47
2024-01-15T03:47:23.581Z,27.62
2024-01-15T03:49:51.678Z,28.20
2024-01-15T03:52:19.507Z,27.98
2024-01-15T03:54:47.482Z,28.48
2024-01-15T03:57:15.537Z,28.13
2024-01-15T03:59:43.616Z,27.50
2024-01-15T04:02:11.426Z,27.25
2024-01-15T04:04:43.416Z,26.69
2024-01-15T04:07:12.385Z,26.46
2024-01-15T04:09:40.425Z,25.51
2024-01-15T04:12:08.608Z,23.81
2024-01-15T04:14:36.575Z,24.22
2024-01-15T04:17:04.446Z,22.95
2024-01-15T04:19:32.328Z,24.31
2024-01-15T04:22:00.144Z,23.37
2024-01-15T04:24:27.852Z,22.75
2024-01-15T04:26:56.386Z,23.43
2024-01-15T04:29:24.303Z,22.95
2024-01-15T04:31:52.946Z,22.70
2024-01-15T04:34:20.989Z,23.85
2024-01-15T04:36:49.123Z,22.70
2024-01-15T04:39:17.131Z,23.77
2024-01-15T04:41:45.025Z,25.40
2024-01-15T04:44:12.920Z,25.37
2024-01-15T04:46:40.800Z,25.44
2024-01-15T04:49:09.058Z,25.75
2024-01-15T04:51:37.052Z,26.56
2024-01-15T04:54:05.274Z,27.25
2024-01-15T04:56:33.109Z,26.68
2024-01-15T04:59:00.843Z,26.88
2024-01-15T05:01:32.715Z,26.94
2024-01-15T05:04:01.067Z,27.04
2024-01-15T05:06:29.234Z,26.06
2024-01-15T05:08:57.026Z,25.98
2024-01-15T05:11:25.609Z,25.81
2024-01-15T05:13:53.617Z,25.86
2024-01-15T05:16:21.538Z,25.20
2024-01-15T05:18:49.627Z,25.21
2024-01-15T05:21:17.587Z,23.91
2024-01-15T05:23:45.683Z,24.47
2024-01-15T05:26:13.830Z,23.54
2024-01-15T05:28:46.258Z,23.61
2024-01-15T05:31:14.552Z,24.30
2024-01-15T05:33:42.543Z,23.48
2024-01-15T05:36:10.492Z,24.31
2024-01-15T05:38:38.502Z,23.29
2024-01-15T05:41:07.289Z,23.38
2024-01-15T05:43:35.590Z,22.77
2024-01-15T05:46:04.384Z,23.08
2024-01-15T05:48:32.434Z,23.00
2024-01-15T05:51:00.457Z,23.29
2024-01-15T05:53:28.300Z,22.85
2024-01-15T05:55:57.235Z,23.56
2024-01-15T05:58:25.233Z,24.50
2024-01-15T06:00:53.009Z,24.64
2024-01-15T06:03:21.143Z,25.03
2024-01-15T06:05:48.965Z,24.39
2024-01-15T06:08:16.999Z,24.81
2024-01-15T06:10:44.944Z,24.60
2024-01-15T06:13:12.754Z,24.07
2024-01-15T06:15:40.589Z,24.23
2024-01-15T06:18:08.721Z,23.72
2024-01-15T06:20:36.945Z,23.68
2024-01-15T06:23:05.121Z,23.63
2024-01-15T06:25:33.046Z,24.23
2024-01-15T06:28:00.999Z,24.62
2024-01-15T06:30:29.131Z,26.04
2024-01-15T06:32:57.002Z,27.38
2024-01-15T06:35:25.129Z,27.62
2024-01-15T06:37:53.076Z,28.15
2024-01-15T06:40:21.247Z,28.68
2024-01-15T06:42:49.065Z,28.98
2024-01-15T06:45:17.355Z,29.67
2024-01-15T06:47:45.452Z,28.91
2024-01-15T06:50:13.181Z,30.99
2024-01-15T06:52:41.211Z,31.53
2024-01-15T06:55:09.496Z,31.85
2024-01-15T06:57:37.251Z,34.13
2024-01-15T07:00:09.169Z,49.90
2024-01-15T07:02:37.258Z,62.45
2024-01-15T07:05:06.524Z,48.89
2024-01-15T07:07:34.464Z,38.02
2024-01-15T07:10:02.505Z,33.35
2024-01-15T07:12:30.936Z,32.57
2024-01-15T07:14:58.956Z,31.86
2024-01-15T07:17:26.787Z,31.31
2024-01-15T07:19:58.143Z,31.74
2024-01-15T07:22:26.155Z,31.08
2024-01-15T07:24:54.095Z,30.69
2024-01-15T07:27:22.326Z,30.34
2024-01-15T07:29:50.241Z,29.11
2024-01-15T07:32:18.255Z,29.29
2024-01-15T07:34:46.401Z,28.44
2024-01-15T07:37:14.285Z,28.28
2024-01-15T07:39:43.758Z,27.42
2024-01-15T07:42:13.017Z,27.27
2024-01-15T07:44:40.986Z,25.91
2024-01-15T07:47:10.716Z,25.51
2024-01-15T07:49:38.560Z,24.09
2024-01-15T07:52:06.630Z,23.89
2024-01-15T07:54:34.449Z,23.70
2024-01-15T07:57:06.791Z,23.10
2024-01-15T07:59:35.908Z,21.49
2024-01-15T08:02:04.202Z,20.40
2024-01-15T08:04:32.327Z,18.78
2024-01-15T08:07:00.305Z,18.54
2024-01-15T08:09:28.140Z,18.16
2024-01-15T08:11:56.089Z,17.49
2024-01-15T08:14:24.049Z,17.69
2024-01-15T08:16:52.016Z,16.88
2024-01-15T08:19:21.281Z,16.49
2024-01-15T08:21:49.436Z,15.85
2024-01-15T08:24:18.211Z,15.57
2024-01-15T08:26:46.584Z,15.41
2024-01-15T08:29:14.754Z,16.03
2024-01-15T08:31:42.782Z,15.28
2024-01-15T08:34:10.870Z,15.42
2024-01-15T08:36:39.165Z,15.85
2024-01-15T08:39:07.483Z,15.49
2024-01-15T08:41:35.917Z,14.87
2024-01-15T08:44:07.084Z,14.72
2024-01-15T08:46:35.056Z,14.98
2024-01-15T08:49:04.651Z,14.67
2024-01-15T08:51:32.761Z,13.99
2024-01-15T08:54:00.608Z,13.17
2024-01-15T08:56:28.668Z,13.17
2024-01-15T08:58:56.937Z,13.30
2024-01-15T09:01:25.249Z,13.21
2024-01-15T09:03:53.199Z,13.30
2024-01-15T09:06:22.149Z,13.09
2024-01-15T09:08:50.691Z,12.62
2024-01-15T09:11:18.521Z,12.66
2024-01-15T09:13:46.509Z,12.71
2024-01-15T09:16:14.391Z,11.77
2024-01-15T09:18:42.428Z,11.54
2024-01-15T09:21:10.429Z,11.87
2024-01-15T09:23:39.207Z,11.79
2024-01-15T09:26:09.125Z,11.58
2024-01-15T09:28:36.976Z,11.24
2024-01-15T09:31:04.937Z,11.27
2024-01-15T09:33:32.932Z,11.31
2024-01-15T09:36:05.167Z,11.39
2024-01-15T09:38:33.130Z,11.39
2024-01-15T09:41:00.985Z,11.03
2024-01-15T09:43:28.754Z,10.98
2024-01-15T09:45:57.455Z,11.10
2024-01-15T09:48:25.490Z,10.68
2024-01-15T09:50:57.968Z,10.40
2024-01-15T09:53:27.438Z,10.68
2024-01-15T09:55:55.306Z,10.66
2024-01-15T09:58:23.692Z,10.87
2024-01-15T10:00:52.424Z,10.91
2024-01-15T10:03:20.301Z,10.90
2024-01-15T10:05:49.400Z,10.42
2024-01-15T10:08:17.644Z,10.26
2024-01-15T10:10:45.522Z,10.13
2024-01-15T10:13:14.260Z,10.53
2024-01-15T10:15:44.095Z,10.46
2024-01-15T10:18:12.184Z,10.40
2024-01-15T10:20:41.242Z,10.44
2024-01-15T10:23:09.205Z,10.45
2024-01-15T10:25:37.623Z,10.71
2024-01-15T10:28:06.748Z,10.56
2024-01-15T10:30:35.697Z,11.28
2024-01-15T10:33:06.627Z,9.91
2024-01-15T10:35:38.094Z,9.96
2024-01-15T10:38:07.438Z,9.13
2024-01-15T10:40:35.155Z,9.59
2024-01-15T10:43:03.173Z,9.36
2024-01-15T10:45:31.655Z,9.31
2024-01-15T10:48:03.960Z,9.77
2024-01-15T10:50:33.217Z,9.83
2024-01-15T10:53:01.283Z,9.30
2024-01-15T10:55:30.399Z,9.14
2024-01-15T10:57:59.834Z,8.57
2024-01-15T11:00:29.146Z,8.34
2024-01-15T11:02:58.130Z,7.89
2024-01-15T11:05:26.831Z,7.68
2024-01-15T11:07:58.068Z,7.56
2024-01-15T11:10:50.667Z,7.45
2024-01-15T11:13:26.337Z,7.64
2024-01-15T11:16:01.926Z,7.54
2024-01-15T11:18:32.551Z,7.46
2024-01-15T11:21:19.278Z,6.96
2024-01-15T11:23:52.686Z,6.82
2024-01-15T11:26:38.413Z,6.94
2024-01-15T11:29:35.744Z,6.72
2024-01-15T11:32:13.030Z,7.18
2024-01-15T11:35:04.564Z,6.83
2024-01-15T11:37:53.015Z,6.95
2024-01-15T11:40:23.679Z,6.60
2024-01-15T11:42:53.932Z,6.84
2024-01-15T11:45:23.095Z,6.86
2024-01-15T11:48:17.705Z,6.95
2024-01-15T11:50:56.545Z,6.84
2024-01-15T11:53:49.605Z,6.51
2024-01-15T11:56:18.760Z,6.65
2024-01-15T11:58:47.103Z,6.58
2024-01-15T12:01:15.463Z,6.46
2024-01-15T12:03:43.644Z,6.00
2024-01-15T12:06:12.808Z,5.96
2024-01-15T12:08:40.687Z,5.80
2024-01-15T12:11:17.033Z,5.24
2024-01-15T12:13:45.084Z,5.34
2024-01-15T12:16:13.906Z,5.85
2024-01-15T12:18:43.748Z,5.41
2024-01-15T12:21:11.902Z,5.70
2024-01-15T12:23:40.571Z,5.57
2024-01-15T12:26:08.549Z,5.89
2024-01-15T12:28:37.727Z,5.81
2024-01-15T12:31:06.869Z,5.35
2024-01-15T12:33:35.408Z,5.13
2024-01-15T12:36:03.305Z,5.22
2024-01-15T12:38:31.152Z,5.31
2024-01-15T12:40:58.949Z,4.63
2024-01-15T12:43:27.130Z,4.28
2024-01-15T12:45:55.592Z,4.35
2024-01-15T12:48:23.883Z,4.07
2024-01-15T12:50:54.473Z,3.97
2024-01-15T12:53:22.705Z,4.21
2024-01-15T12:55:50.429Z,3.98
2024-01-15T12:58:20.151Z,3.77
2024-01-15T13:00:49.005Z,3.44
2024-01-15T13:03:17.103Z,3.51
2024-01-15T13:05:46.975Z,3.30
2024-01-15T13:08:15.325Z,3.47
2024-01-15T13:10:43.540Z,3.69
2024-01-15T13:13:11.610Z,3.76
2024-01-15T13:15:39.524Z,3.86
2024-01-15T13:18:07.901Z,3.90
2024-01-15T13:20:36.472Z,3.88
2024-01-15T13:23:05.256Z,3.74
2024-01-15T13:25:34.997Z,3.32
2024-01-15T13:28:04.102Z,3.71
2024-01-15T13:30:32.638Z,3.56
2024-01-15T13:33:05.627Z,3.57
2024-01-15T13:35:37.810Z,3.47
2024-01-15T13:38:05.786Z,3.64
2024-01-15T13:40:33.761Z,3.55
2024-01-15T13:43:01.720Z,3.79
2024-01-15T13:45:29.678Z,4.05
2024-01-15T13:47:57.760Z,4.17
2024-01-15T13:50:29.065Z,4.23
2024-01-15T13:52:56.868Z,4.43
2024-01-15T13:55:25.260Z,4.00
2024-01-15T13:57:53.133Z,3.99
2024-01-15T14:00:24.980Z,3.66
2024-01-15T14:02:52.996Z,3.50
2024-01-15T14:05:21.500Z,3.74
2024-01-15T14:07:49.335Z,3.45
2024-01-15T14:10:17.335Z,3.64
2024-01-15T14:12:45.279Z,3.64
2024-01-15T14:15:13.101Z,3.83
2024-01-15T14:17:41.165Z,3.62
2024-01-15T14:20:11.067Z,3.73
2024-01-15T14:22:39.088Z,3.41
2024-01-15T14:25:07.863Z,3.63
2024-01-15T14:27:36.055Z,3.70
2024-01-15T14:30:04.741Z,3.83
2024-01-15T14:32:32.610Z,3.86
2024-01-15T14:35:01.551Z,3.62
2024-01-15T14:37:29.324Z,3.25
2024-01-15T14:39:57.357Z,3.46
2024-01-15T14:42:25.663Z,3.30
2024-01-15T14:44:53.817Z,3.35
2024-01-15T14:47:25.710Z,3.47
2024-01-15T14:49:53.753Z,3.42
2024-01-15T14:52:21.567Z,3.39
2024-01-15T14:54:49.697Z,3.26
2024-01-15T14:57:17.617Z,3.22
2024-01-15T14:59:45.482Z,3.23
2024-01-15T15:02:15.261Z,2.98
2024-01-15T15:04:45.689Z,3.06
2024-01-15T15:07:15.399Z,3.33
2024-01-15T15:09:44.393Z,3.18
2024-01-15T15:12:12.216Z,3.31
2024-01-15T15:14:48.670Z,3.13
2024-01-15T15:17:24.274Z,3.34
2024-01-15T15:19:57.984Z,3.48
2024-01-15T15:22:26.267Z,3.43
2024-01-15T15:24:54.513Z,3.32
2024-01-15T15:27:23.057Z,3.19
2024-01-15T15:29:52.269Z,3.13
2024-01-15T15:32:20.247Z,3.44
2024-01-15T15:34:48.343Z,3.82
2024-01-15T15:37:18.341Z,3.61
2024-01-15T15:39:46.480Z,3.85
2024-01-15T15:42:15.249Z,3.97
2024-01-15T15:44:48.571Z,3.93
2024-01-15T15:47:16.518Z,4.11
2024-01-15T15:49:44.711Z,4.09
2024-01-15T15:52:12.976Z,4.01
2024-01-15T15:54:41.162Z,4.25
2024-01-15T15:57:09.957Z,4.08
2024-01-15T15:59:37.705Z,3.92
2024-01-15T16:02:05.472Z,4.47
2024-01-15T16:04:33.488Z,4.44
2024-01-15T16:07:02.690Z,4.51
2024-01-15T16:09:30.933Z,5.19
2024-01-15T16:11:59.213Z,4.66
2024-01-15T16:14:27.000Z,4.69
2024-01-15T16:23:13.604Z,5.15
2024-01-15T16:23:27.089Z,5.22
2024-01-15T16:23:42.585Z,5.38
2024-01-15T16:25:22.796Z,4.92
2024-01-15T16:27:50.885Z,4.62
2024-01-15T16:30:25.881Z,4.56
2024-01-15T16:33:01.251Z,4.67
2024-01-15T16:35:29.417Z,5.02
2024-01-15T16:37:57.722Z,4.95
2024-01-15T16:40:26.318Z,5.79
2024-01-15T16:42:54.945Z,5.55
2024-01-15T16:45:26.039Z,8.35
2024-01-15T16:47:54.094Z,8.78
2024-01-15T16:50:22.018Z,6.75
2024-01-15T16:52:49.720Z,6.29
2024-01-15T16:55:18.416Z,5.96
2024-01-15T16:57:46.569Z,6.72
2024-01-15T17:00:14.849Z,7.75
2024-01-15T17:02:43.564Z,8.27
2024-01-15T17:05:12.928Z,8.50
2024-01-15T17:07:41.371Z,8.46
2024-01-15T17:10:09.508Z,8.43
2024-01-15T17:12:37.342Z,8.15
2024-01-15T17:15:05.872Z,8.52
2024-01-15T17:17:34.134Z,8.87
2024-01-15T17:20:02.032Z,9.00
2024-01-15T17:22:30.428Z,10.17
2024-01-15T17:24:59.315Z,9.19
2024-01-15T17:27:27.026Z,8.32
2024-01-15T17:29:56.998Z,7.61
2024-01-15T17:32:25.794Z,8.74
2024-01-15T17:34:54.756Z,9.09
2024-01-15T17:37:22.704Z,8.38
2024-01-15T17:39:54.187Z,9.17
2024-01-15T17:42:21.910Z,8.61
2024-01-15T17:44:49.831Z,7.66
2024-01-15T17:47:17.752Z,7.46
2024-01-15T17:49:45.546Z,7.18
2024-01-15T17:52:13.519Z,7.59
2024-01-15T17:54:41.537Z,7.69
2024-01-15T17:57:09.795Z,8.43
2024-01-15T17:59:37.643Z,8.35
2024-01-15T18:02:06.379Z,8.51
2024-01-15T18:04:34.190Z,9.33
2024-01-15T18:07:03.109Z,9.74
2024-01-15T18:09:30.921Z,10.06
2024-01-15T18:12:01.865Z,9.82
2024-01-15T18:14:30.343Z,10.70
2024-01-15T18:16:58.426Z,11.53
2024-01-15T18:19:26.821Z,11.49
2024-01-15T18:21:57.442Z,11.57
2024-01-15T18:24:28.417Z,11.90
2024-01-15T18:26:56.583Z,12.99
2024-01-15T18:29:25.258Z,13.67
2024-01-15T18:31:53.575Z,13.61
2024-01-15T18:34:21.705Z,14.11
2024-01-15T18:36:50.126Z,15.17
2024-01-15T18:39:18.793Z,15.35
2024-01-15T18:41:46.941Z,15.17
2024-01-15T18:44:14.864Z,16.04
2024-01-15T18:46:45.040Z,14.89
2024-01-15T18:49:13.377Z,14.19
2024-01-15T18:51:41.572Z,14.49
2024-01-15T18:54:09.511Z,13.50
2024-01-15T18:56:42.608Z,12.75
2024-01-15T18:59:10.985Z,11.37
2024-01-15T19:01:41.103Z,10.79
2024-01-15T19:04:11.639Z,11.26
2024-01-15T19:06:43.561Z,10.66
2024-01-15T19:09:12.314Z,10.23
2024-01-15T19:11:40.274Z,9.65
2024-01-15T19:14:08.457Z,9.65
2024-01-15T19:16:36.429Z,9.54
2024-01-15T19:19:04.602Z,8.77
2024-01-15T19:21:32.486Z,8.48
2024-01-15T19:24:00.458Z,8.33
2024-01-15T19:26:28.515Z,8.48
2024-01-15T19:28:57.722Z,8.04
2024-01-15T19:31:25.735Z,8.53
2024-01-15T19:33:53.878Z,8.72
2024-01-15T19:36:27.665Z,8.84
2024-01-15T19:38:55.810Z,10.05
2024-01-15T19:41:23.851Z,8.91
2024-01-15T19:43:51.989Z,8.38
2024-01-15T19:46:19.831Z,8.69
2024-01-15T19:48:47.848Z,7.97
2024-01-15T19:51:16.750Z,7.65
2024-01-15T19:53:44.986Z,8.49
2024-01-15T19:56:18.348Z,8.56
2024-01-15T19:58:46.332Z,9.29
2024-01-15T20:01:14.511Z,9.98
2024-01-15T20:03:44.135Z,10.70
2024-01-15T20:06:16.143Z,10.02
2024-01-15T20:08:45.995Z,9.76
2024-01-15T20:11:15.565Z,10.18
2024-01-15T20:13:44.147Z,10.94
2024-01-15T20:16:14.031Z,11.25
2024-01-15T20:18:43.720Z,12.17
2024-01-15T20:21:11.949Z,11.98
2024-01-15T20:23:50.547Z,12.07
2024-01-15T20:26:23.838Z,12.26
2024-01-15T20:28:52.287Z,11.44
2024-01-15T20:31:20.211Z,12.05
2024-01-15T20:33:49.290Z,12.38
2024-01-15T20:36:17.357Z,11.33
2024-01-15T20:38:45.345Z,11.62
2024-01-15T20:41:13.451Z,11.90
2024-01-15T20:43:41.895Z,12.02
2024-01-15T20:46:09.799Z,11.72
2024-01-15T20:48:37.604Z,11.81
2024-01-15T20:51:06.323Z,11.85
2024-01-15T20:53:34.386Z,11.82
2024-01-15T20:56:02.324Z,11.88
2024-01-15T20:58:30.221Z,12.38
2024-01-15T21:00:58.026Z,13.03
2024-01-15T21:03:26.424Z,12.99
2024-01-15T21:05:54.521Z,13.68
2024-01-15T21:08:22.679Z,13.72
2024-01-15T21:10:50.690Z,14.58
2024-01-15T21:13:19.146Z,14.06
2024-01-15T21:15:47.939Z,14.82
2024-01-15T21:18:18.162Z,14.73
2024-01-15T21:20:47.062Z,14.69
2024-01-15T21:23:15.097Z,14.49
2024-01-15T21:25:42.955Z,14.55
2024-01-15T21:28:11.413Z,14.76
2024-01-15T21:30:39.233Z,13.99
2024-01-15T21:33:08.832Z,13.95
2024-01-15T21:35:37.020Z,12.99
2024-01-15T21:38:05.368Z,12.47
2024-01-15T21:40:33.699Z,11.44
2024-01-15T21:43:01.482Z,11.18
2024-01-15T21:45:29.301Z,10.40
2024-01-15T21:47:57.183Z,10.23
2024-01-15T21:50:25.427Z,9.87
2024-01-15T21:52:53.335Z,9.65
2024-01-15T21:55:21.378Z,9.56
2024-01-15T21:57:49.316Z,8.72
2024-01-15T22:00:17.878Z,8.92
2024-01-15T22:02:46.815Z,9.06
2024-01-15T22:05:15.229Z,9.41
2024-01-15T22:07:44.860Z,8.83
2024-01-15T22:10:13.209Z,7.91
2024-01-15T22:12:42.413Z,9.00
2024-01-15T22:15:10.667Z,8.42
2024-01-15T22:17:39.064Z,9.60
2024-01-15T22:20:08.620Z,10.23
2024-01-15T22:22:36.491Z,10.51
2024-01-15T22:25:04.604Z,10.46
2024-01-15T22:27:32.617Z,10.39
2024-01-15T22:30:00.716Z,10.17
2024-01-15T22:32:31.826Z,10.43
2024-01-15T22:35:00.484Z,9.80
2024-01-15T22:37:28.345Z,9.84
2024-01-15T22:39:56.370Z,9.33
2024-01-15T22:42:24.470Z,9.29
2024-01-15T22:44:52.933Z,9.09
2024-01-15T22:47:21.827Z,8.98
2024-01-15T22:49:49.688Z,9.02
2024-01-15T22:52:17.503Z,11.85
2024-01-15T22:54:45.348Z,9.59
2024-01-15T22:57:13.259Z,8.26
2024-01-15T22:59:41.035Z,7.90
2024-01-15T23:02:08.907Z,7.91
2024-01-15T23:04:38.758Z,7.63
2024-01-15T23:07:06.975Z,7.95
2024-01-15T23:09:34.753Z,7.79
2024-01-15T23:12:02.673Z,7.68
2024-01-15T23:14:30.431Z,7.90
2024-01-15T23:16:58.371Z,8.08
2024-01-15T23:19:26.339Z,7.84
2024-01-15T23:21:57.600Z,7.94
2024-01-15T23:24:25.561Z,7.94
2024-01-15T23:26:54.124Z,8.09
2024-01-15T23:29:22.020Z,8.22
2024-01-15T23:31:49.806Z,8.09
2024-01-15T23:34:17.638Z,8.38
2024-01-15T23:36:46.171Z,8.67
2024-01-15T23:39:14.396Z,8.73
2024-01-15T23:41:42.470Z,8.79
2024-01-15T23:44:10.551Z,8.14
2024-01-15T23:46:38.502Z,8.07
2024-01-15T23:49:06.608Z,8.32
2024-01-15T23:51:49.918Z,8.36
2024-01-15T23:54:18.981Z,8.04
2024-01-15T23:56:47.026Z,7.71
2024-01-15T23:59:16.094Z,7.30
